Time;durP1;ratioP1;P1;durP2;ratioP2;P2;SDS_P1;SDS_P2;PMS_P1;PMS_P2;Temp;Humidity;BMP_temperature;BMP_pressure;BME280_temperature;BME280_humidity;BME280_pressure;Samples;Min_cycle;Max_cycle;Signal;HPM_P1;HPM_P2
2022/07/05 00:02:02;;;;;;;0.00;0.00;;;;;;;;;;4929271;29;20055;-64
2022/07/05 00:04:28;;;;;;;0.00;0.00;;;;;;;;;;4926199;29;20271;-63
2022/07/05 00:09:37;;;;;;;0.00;0.00;;;;;;;;;;4928457;29;20098;-63
2022/07/05 00:12:02;;;;;;;0.80;0.80;;;;;;;;;;4927948;29;20035;-63
2022/07/05 00:14:27;;;;;;;0.00;0.00;;;;;;;;;;4924559;29;20026;-63
2022/07/05 00:16:53;;;;;;;0.00;0.00;;;;;;;;;;4930592;29;20036;-64
2022/07/05 00:19:18;;;;;;;0.00;0.00;;;;;;;;;;4929428;29;20023;-63
2022/07/05 00:21:43;;;;;;;0.00;0.00;;;;;;;;;;4927461;29;20058;-63
2022/07/05 00:24:08;;;;;;;0.32;0.32;;;;;;;;;;4924255;29;20039;-64
2022/07/05 00:26:33;;;;;;;0.00;0.00;;;;;;;;;;4927317;29;20055;-63
2022/07/05 00:28:59;;;;;;;0.00;0.00;;;;;;;;;;4928719;29;20020;-63
2022/07/05 00:31:24;;;;;;;0.00;0.00;;;;;;;;;;4926323;29;20113;-63
2022/07/05 00:33:49;;;;;;;0.00;0.00;;;;;;;;;;4926772;29;20361;-64
2022/07/05 00:36:14;;;;;;;0.00;0.00;;;;;;;;;;4931965;29;20024;-64
2022/07/05 00:38:40;;;;;;;0.00;0.00;;;;;;;;;;4931349;29;20082;-63
2022/07/05 00:41:05;;;;;;;0.00;0.00;;;;;;;;;;4914581;29;20068;-64
2022/07/05 00:43:30;;;;;;;0.43;0.43;;;;;;;;;;4931757;29;20130;-64
2022/07/05 00:45:55;;;;;;;0.30;0.30;;;;;;;;;;4913785;29;20023;-64
2022/07/05 00:48:21;;;;;;;0.00;0.00;;;;;;;;;;4932118;29;20094;-64
2022/07/05 00:50:46;;;;;;;0.00;0.00;;;;;;;;;;4929495;29;20434;-64
2022/07/05 00:53:11;;;;;;;0.00;0.00;;;;;;;;;;4931957;29;20046;-64
2022/07/05 00:55:37;;;;;;;0.00;0.00;;;;;;;;;;4931326;29;20027;-64
2022/07/05 00:58:02;;;;;;;0.00;0.00;;;;;;;;;;4931558;29;20167;-64
2022/07/05 01:00:28;;;;;;;0.00;0.00;;;;;;;;;;4931584;29;20027;-64
2022/07/05 01:02:53;;;;;;;0.00;0.00;;;;;;;;;;4932034;29;20075;-64
2022/07/05 01:05:18;;;;;;;0.00;0.00;;;;;;;;;;4931998;29;20055;-64
2022/07/05 01:07:44;;;;;;;0.00;0.00;;;;;;;;;;4931360;29;20476;-64
2022/07/05 01:10:10;;;;;;;0.00;0.00;;;;;;;;;;4931056;29;20030;-64
2022/07/05 01:12:37;;;;;;;0.00;0.00;;;;;;;;;;4931517;29;20095;-64
2022/07/05 01:15:02;;;;;;;0.00;0.00;;;;;;;;;;4931142;29;20397;-63
2022/07/05 01:17:28;;;;;;;0.00;0.00;;;;;;;;;;4930875;29;20025;-62
2022/07/05 01:19:53;;;;;;;0.10;0.10;;;;;;;;;;4930524;29;20028;-62
2022/07/05 01:22:19;;;;;;;0.00;0.00;;;;;;;;;;4932011;29;20058;-62
2022/07/05 01:24:48;;;;;;;0.00;0.00;;;;;;;;;;4931675;29;20126;-62
2022/07/05 01:27:14;;;;;;;0.00;0.00;;;;;;;;;;4931523;29;20031;-62
2022/07/05 01:29:40;;;;;;;0.00;0.00;;;;;;;;;;4931244;29;20438;-62
2022/07/05 01:32:05;;;;;;;0.00;0.00;;;;;;;;;;4931303;29;20039;-61
2022/07/05 01:34:31;;;;;;;0.00;0.00;;;;;;;;;;4931042;29;20362;-61
2022/07/05 01:36:56;;;;;;;0.00;0.00;;;;;;;;;;4930214;29;20409;-61
2022/07/05 01:39:21;;;;;;;0.00;0.00;;;;;;;;;;4913833;29;20031;-61
2022/07/05 01:41:47;;;;;;;0.10;0.10;;;;;;;;;;4930911;29;20028;-61
2022/07/05 01:44:13;;;;;;;0.00;0.00;;;;;;;;;;4931394;29;20042;-61
2022/07/05 01:46:39;;;;;;;0.00;0.00;;;;;;;;;;4930735;29;20024;-61
2022/07/05 01:49:06;;;;;;;0.00;0.00;;;;;;;;;;4930672;29;20107;-63
2022/07/05 01:51:37;;;;;;;0.00;0.00;;;;;;;;;;4931454;29;20027;-62
2022/07/05 01:54:03;;;;;;;0.40;0.40;;;;;;;;;;4929513;29;20030;-63
2022/07/05 01:56:28;;;;;;;0.00;0.00;;;;;;;;;;4930663;29;20441;-62
2022/07/05 01:58:53;;;;;;;0.00;0.00;;;;;;;;;;4931182;29;20094;-63
2022/07/05 02:01:31;;;;;;;0.80;0.80;;;;;;;;;;4931175;29;20028;-63
2022/07/05 02:03:56;;;;;;;0.00;0.00;;;;;;;;;;4931096;29;20434;-63
2022/07/05 02:06:22;;;;;;;0.00;0.00;;;;;;;;;;4931228;29;20051;-62
2022/07/05 02:08:47;;;;;;;0.00;0.00;;;;;;;;;;4930156;29;20031;-62
2022/07/05 02:11:12;;;;;;;0.05;0.05;;;;;;;;;;4930295;29;20107;-62
2022/07/05 02:13:38;;;;;;;0.00;0.00;;;;;;;;;;4930654;29;20103;-63
2022/07/05 02:16:03;;;;;;;0.00;0.00;;;;;;;;;;4930857;29;20392;-64
2022/07/05 02:18:29;;;;;;;0.00;0.00;;;;;;;;;;4928643;29;20043;-63
2022/07/05 02:20:54;;;;;;;0.00;0.00;;;;;;;;;;4929439;29;20020;-64
2022/07/05 02:23:19;;;;;;;0.00;0.00;;;;;;;;;;4930290;29;20035;-64
2022/07/05 02:25:44;;;;;;;0.00;0.00;;;;;;;;;;4930389;29;20030;-65
2022/07/05 02:28:09;;;;;;;0.00;0.00;;;;;;;;;;4930901;29;20049;-65
2022/07/05 02:30:35;;;;;;;0.00;0.00;;;;;;;;;;4932122;29;20028;-63
2022/07/05 02:33:00;;;;;;;0.35;0.35;;;;;;;;;;4932420;29;20110;-62
2022/07/05 02:35:25;;;;;;;0.00;0.00;;;;;;;;;;4933832;29;20024;-63
2022/07/05 02:37:50;;;;;;;0.00;0.00;;;;;;;;;;4933951;29;20020;-63
2022/07/05 02:40:16;;;;;;;0.00;0.00;;;;;;;;;;4932886;29;20023;-63
2022/07/05 02:42:41;;;;;;;0.00;0.00;;;;;;;;;;4934160;29;20094;-63
2022/07/05 02:45:06;;;;;;;0.00;0.00;;;;;;;;;;4933696;29;20031;-63
2022/07/05 02:47:32;;;;;;;0.00;0.00;;;;;;;;;;4933231;29;20031;-63
2022/07/05 02:49:58;;;;;;;0.00;0.00;;;;;;;;;;4934302;29;20076;-61
2022/07/05 02:52:23;;;;;;;0.00;0.00;;;;;;;;;;4933505;29;20036;-61
2022/07/05 02:54:49;;;;;;;0.00;0.00;;;;;;;;;;4931883;29;20039;-62
2022/07/05 02:57:14;;;;;;;0.00;0.00;;;;;;;;;;4934214;29;20055;-61
2022/07/05 02:59:39;;;;;;;0.00;0.00;;;;;;;;;;4933643;29;20024;-62
2022/07/05 03:02:04;;;;;;;0.00;0.00;;;;;;;;;;4933387;29;20042;-62
2022/07/05 03:04:30;;;;;;;0.00;0.00;;;;;;;;;;4933246;29;20099;-61
2022/07/05 03:06:55;;;;;;;0.32;0.32;;;;;;;;;;4933974;29;20114;-61
2022/07/05 03:09:20;;;;;;;0.00;0.00;;;;;;;;;;4916759;29;20024;-62
2022/07/05 03:11:45;;;;;;;0.00;0.00;;;;;;;;;;4933663;29;20039;-61
2022/07/05 03:14:10;;;;;;;0.00;0.00;;;;;;;;;;4932659;29;20038;-62
2022/07/05 03:16:36;;;;;;;0.00;0.00;;;;;;;;;;4933162;29;20034;-61
2022/07/05 03:19:01;;;;;;;0.00;0.00;;;;;;;;;;4933731;29;20019;-64
2022/07/05 03:21:26;;;;;;;0.00;0.00;;;;;;;;;;4933449;29;20083;-65
2022/07/05 03:23:51;;;;;;;0.00;0.00;;;;;;;;;;4932572;29;20103;-66
2022/07/05 03:26:16;;;;;;;0.00;0.00;;;;;;;;;;4933571;29;20102;-65
2022/07/05 03:28:42;;;;;;;0.00;0.00;;;;;;;;;;4933501;29;20119;-66
2022/07/05 03:31:07;;;;;;;0.00;0.00;;;;;;;;;;4933245;29;20040;-64
2022/07/05 03:33:32;;;;;;;0.00;0.00;;;;;;;;;;4932941;29;20071;-62
2022/07/05 03:35:57;;;;;;;0.00;0.00;;;;;;;;;;4933250;29;20333;-63
2022/07/05 03:38:22;;;;;;;0.00;0.00;;;;;;;;;;4915978;29;20635;-63
2022/07/05 03:40:48;;;;;;;0.00;0.00;;;;;;;;;;4932391;29;20038;-63
2022/07/05 03:43:13;;;;;;;0.00;0.00;;;;;;;;;;4932379;29;20034;-64
2022/07/05 03:45:38;;;;;;;0.00;0.00;;;;;;;;;;4932659;29;20024;-64
2022/07/05 03:48:04;;;;;;;0.30;0.30;;;;;;;;;;4933059;29;20040;-63
2022/07/05 03:50:29;;;;;;;0.00;0.00;;;;;;;;;;4933046;29;20024;-63
2022/07/05 03:52:54;;;;;;;0.00;0.00;;;;;;;;;;4914240;29;20032;-63
2022/07/05 03:55:19;;;;;;;0.00;0.00;;;;;;;;;;4932593;29;20030;-64
2022/07/05 03:57:45;;;;;;;0.00;0.00;;;;;;;;;;4932656;29;20046;-63
2022/07/05 04:00:11;;;;;;;0.00;0.00;;;;;;;;;;4933174;29;20031;-63
2022/07/05 04:02:36;;;;;;;0.00;0.00;;;;;;;;;;4932590;29;20043;-63
2022/07/05 04:05:01;;;;;;;0.00;0.00;;;;;;;;;;4932657;29;20086;-64
2022/07/05 04:07:27;;;;;;;0.00;0.00;;;;;;;;;;4932909;29;20091;-62
2022/07/05 04:09:52;;;;;;;0.00;0.00;;;;;;;;;;4932161;29;20028;-63
2022/07/05 04:12:17;;;;;;;0.00;0.00;;;;;;;;;;4931927;29;20098;-62
2022/07/05 04:14:42;;;;;;;0.00;0.00;;;;;;;;;;4932025;29;20031;-62
2022/07/05 04:17:08;;;;;;;0.00;0.00;;;;;;;;;;4932638;29;20313;-62
2022/07/05 04:19:33;;;;;;;0.00;0.00;;;;;;;;;;4915397;29;20034;-62
2022/07/05 04:21:58;;;;;;;0.00;0.00;;;;;;;;;;4928828;29;20063;-62
2022/07/05 04:24:24;;;;;;;0.00;0.00;;;;;;;;;;4931700;29;20373;-62
2022/07/05 04:26:49;;;;;;;0.00;0.00;;;;;;;;;;4929269;29;20381;-62
2022/07/05 04:29:14;;;;;;;0.00;0.00;;;;;;;;;;4930189;29;20484;-62
2022/07/05 04:31:39;;;;;;;0.00;0.00;;;;;;;;;;4932043;29;20039;-62
2022/07/05 04:34:05;;;;;;;0.00;0.00;;;;;;;;;;4932209;29;20102;-62
2022/07/05 04:36:30;;;;;;;0.00;0.00;;;;;;;;;;4932305;29;20023;-62
2022/07/05 04:38:55;;;;;;;0.00;0.00;;;;;;;;;;4931790;29;20032;-63
2022/07/05 04:41:21;;;;;;;0.00;0.00;;;;;;;;;;4931320;29;20023;-64
2022/07/05 04:43:46;;;;;;;0.00;0.00;;;;;;;;;;4930246;29;20397;-64
2022/07/05 04:46:11;;;;;;;0.00;0.00;;;;;;;;;;4931919;29;20036;-64
2022/07/05 04:48:37;;;;;;;0.00;0.00;;;;;;;;;;4931779;29;20110;-63
2022/07/05 04:51:02;;;;;;;0.00;0.00;;;;;;;;;;4931959;29;20032;-63
2022/07/05 04:53:27;;;;;;;0.00;0.00;;;;;;;;;;4930994;29;20039;-64
2022/07/05 04:55:52;;;;;;;0.00;0.00;;;;;;;;;;4931027;29;20024;-63
2022/07/05 04:58:17;;;;;;;0.00;0.00;;;;;;;;;;4931639;29;20019;-63
2022/07/05 05:00:43;;;;;;;0.00;0.00;;;;;;;;;;4930992;29;20496;-63
2022/07/05 05:03:08;;;;;;;0.00;0.00;;;;;;;;;;4931105;29;20028;-63
2022/07/05 05:05:33;;;;;;;0.00;0.00;;;;;;;;;;4931222;29;20035;-64
2022/07/05 05:07:58;;;;;;;0.00;0.00;;;;;;;;;;4931503;29;20035;-64
2022/07/05 05:10:24;;;;;;;0.00;0.00;;;;;;;;;;4929623;29;20031;-62
2022/07/05 05:12:49;;;;;;;0.00;0.00;;;;;;;;;;4929952;29;20027;-63
2022/07/05 05:15:14;;;;;;;0.00;0.00;;;;;;;;;;4931290;29;20040;-64
2022/07/05 05:17:40;;;;;;;0.00;0.00;;;;;;;;;;4931096;29;20378;-63
2022/07/05 05:20:06;;;;;;;2.78;2.53;;;;;;;;;;4931139;29;20098;-63
2022/07/05 05:22:32;;;;;;;0.00;0.00;;;;;;;;;;4930850;29;20074;-63
2022/07/05 05:24:57;;;;;;;0.00;0.00;;;;;;;;;;4930883;29;20031;-63
2022/07/05 05:27:22;;;;;;;0.00;0.00;;;;;;;;;;4931494;29;20106;-63
2022/07/05 05:29:47;;;;;;;0.00;0.00;;;;;;;;;;4930902;29;20034;-63
2022/07/05 05:32:12;;;;;;;0.00;0.00;;;;;;;;;;4931264;29;20067;-63
2022/07/05 05:34:38;;;;;;;0.00;0.00;;;;;;;;;;4930878;29;20043;-64
2022/07/05 05:37:03;;;;;;;0.00;0.00;;;;;;;;;;4931151;29;20051;-62
2022/07/05 05:39:28;;;;;;;0.00;0.00;;;;;;;;;;4930170;29;20302;-63
2022/07/05 05:41:53;;;;;;;0.00;0.00;;;;;;;;;;4930712;29;20035;-62
2022/07/05 05:44:19;;;;;;;1.25;1.25;;;;;;;;;;4931139;29;20319;-63
2022/07/05 05:46:44;;;;;;;0.00;0.00;;;;;;;;;;4930198;29;20024;-63
2022/07/05 05:49:09;;;;;;;0.00;0.00;;;;;;;;;;4931000;29;20051;-62
2022/07/05 05:51:34;;;;;;;0.00;0.00;;;;;;;;;;4930775;29;20256;-62
2022/07/05 05:54:00;;;;;;;0.00;0.00;;;;;;;;;;4926245;29;20453;-62
2022/07/05 05:56:26;;;;;;;0.00;0.00;;;;;;;;;;4923305;29;20417;-62
2022/07/05 05:58:52;;;;;;;0.00;0.00;;;;;;;;;;4927061;29;20027;-62
2022/07/05 06:01:17;;;;;;;0.10;0.10;;;;;;;;;;4927838;29;20032;-62
2022/07/05 06:03:42;;;;;;;0.00;0.00;;;;;;;;;;4930096;29;20102;-62
2022/07/05 06:06:07;;;;;;;0.00;0.00;;;;;;;;;;4929300;29;20267;-62
2022/07/05 06:08:32;;;;;;;0.00;0.00;;;;;;;;;;4932127;29;20668;-63
2022/07/05 06:10:58;;;;;;;0.00;0.00;;;;;;;;;;4928982;29;20512;-62
2022/07/05 06:13:23;;;;;;;0.17;0.10;;;;;;;;;;4934504;29;20031;-62
2022/07/05 06:15:48;;;;;;;0.00;0.00;;;;;;;;;;4933886;29;20028;-62
2022/07/05 06:18:13;;;;;;;0.00;0.00;;;;;;;;;;4934382;29;20042;-63
2022/07/05 06:20:39;;;;;;;0.00;0.00;;;;;;;;;;4932095;29;20299;-63
2022/07/05 06:23:04;;;;;;;0.00;0.00;;;;;;;;;;4933851;29;20287;-63
2022/07/05 06:25:30;;;;;;;0.57;0.25;;;;;;;;;;4934142;29;20020;-63
2022/07/05 06:28:00;;;;;;;0.00;0.00;;;;;;;;;;4933732;29;20882;-63
2022/07/05 06:30:25;;;;;;;0.00;0.00;;;;;;;;;;4917088;29;20059;-63
2022/07/05 06:32:51;;;;;;;0.00;0.00;;;;;;;;;;4933476;29;20473;-63
2022/07/05 06:35:16;;;;;;;0.00;0.00;;;;;;;;;;4931218;29;20043;-63
2022/07/05 06:37:45;;;;;;;0.00;0.00;;;;;;;;;;4915065;29;20481;-63
2022/07/05 06:40:11;;;;;;;0.00;0.00;;;;;;;;;;4916372;29;20032;-64
2022/07/05 06:42:36;;;;;;;0.00;0.00;;;;;;;;;;4933486;29;20040;-63
2022/07/05 06:45:02;;;;;;;0.00;0.00;;;;;;;;;;4933935;29;20023;-63
2022/07/05 06:50:18;;;;;;;0.00;0.00;;;;;;;;;;4856393;29;20102;-62
2022/07/05 06:52:43;;;;;;;0.00;0.00;;;;;;;;;;4920915;29;20072;-63
2022/07/05 06:55:08;;;;;;;0.00;0.00;;;;;;;;;;4933245;29;20066;-63
2022/07/05 06:57:34;;;;;;;0.00;0.00;;;;;;;;;;4933937;29;20299;-62
2022/07/05 07:00:00;;;;;;;0.00;0.00;;;;;;;;;;4932756;29;20020;-63
2022/07/05 07:02:25;;;;;;;0.00;0.00;;;;;;;;;;4933522;29;20279;-63
2022/07/05 07:04:50;;;;;;;0.00;0.00;;;;;;;;;;4930589;29;20044;-64
2022/07/05 07:10:00;;;;;;;0.00;0.00;;;;;;;;;;4932764;29;20626;-64
2022/07/05 07:12:25;;;;;;;0.00;0.00;;;;;;;;;;4933158;29;20028;-63
2022/07/05 07:14:50;;;;;;;0.00;0.00;;;;;;;;;;4932603;29;20083;-63
2022/07/05 07:17:16;;;;;;;0.23;0.23;;;;;;;;;;4933346;29;20023;-65
2022/07/05 07:19:41;;;;;;;0.00;0.00;;;;;;;;;;4932605;29;20265;-65
2022/07/05 07:22:06;;;;;;;0.77;0.77;;;;;;;;;;4933116;29;20094;-64
2022/07/05 07:24:31;;;;;;;2.47;2.38;;;;;;;;;;4932933;29;20075;-64
2022/07/05 07:27:02;;;;;;;0.00;0.00;;;;;;;;;;4932426;29;20031;-64
2022/07/05 07:29:28;;;;;;;0.00;0.00;;;;;;;;;;4932739;29;20279;-64
2022/07/05 07:31:53;;;;;;;0.00;0.00;;;;;;;;;;4932850;29;20046;-64
2022/07/05 07:34:19;;;;;;;0.00;0.00;;;;;;;;;;4931826;29;20031;-63
2022/07/05 07:36:44;;;;;;;0.00;0.00;;;;;;;;;;4932801;29;20103;-64
2022/07/05 07:39:09;;;;;;;0.00;0.00;;;;;;;;;;4932284;29;20393;-64
2022/07/05 07:41:34;;;;;;;0.00;0.00;;;;;;;;;;4932491;29;20074;-64
2022/07/05 07:44:01;;;;;;;0.00;0.00;;;;;;;;;;4932461;29;20020;-63
2022/07/05 07:46:27;;;;;;;0.00;0.00;;;;;;;;;;4931780;29;20106;-64
2022/07/05 07:48:52;;;;;;;0.00;0.00;;;;;;;;;;4931387;29;20023;-64
2022/07/05 07:51:21;;;;;;;0.30;0.30;;;;;;;;;;4933016;29;20373;-63
2022/07/05 07:53:46;;;;;;;0.00;0.00;;;;;;;;;;4926918;29;20268;-63
2022/07/05 07:56:11;;;;;;;0.00;0.00;;;;;;;;;;4930973;29;20075;-63
2022/07/05 07:58:36;;;;;;;0.00;0.00;;;;;;;;;;4928625;29;20284;-64
2022/07/05 08:01:02;;;;;;;0.00;0.00;;;;;;;;;;4927121;29;20288;-64
2022/07/05 08:03:27;;;;;;;0.00;0.00;;;;;;;;;;4932129;29;20027;-64
2022/07/05 08:05:52;;;;;;;0.00;0.00;;;;;;;;;;4932575;29;20375;-65
2022/07/05 08:08:17;;;;;;;0.37;0.37;;;;;;;;;;4931101;29;20027;-63
2022/07/05 08:10:43;;;;;;;0.00;0.00;;;;;;;;;;4932145;29;20263;-66
2022/07/05 08:13:08;;;;;;;0.00;0.00;;;;;;;;;;4930613;29;20380;-64
2022/07/05 08:15:33;;;;;;;0.00;0.00;;;;;;;;;;4930983;29;20291;-63
2022/07/05 08:23:26;;;;;;;0.00;0.00;;;;;;;;;;4932021;29;20059;-62
2022/07/05 08:25:52;;;;;;;0.00;0.00;;;;;;;;;;4928048;29;20051;-62
2022/07/05 08:28:18;;;;;;;0.00;0.00;;;;;;;;;;4929745;29;20102;-63
2022/07/05 08:30:43;;;;;;;0.23;0.23;;;;;;;;;;4930258;29;20279;-64
2022/07/05 08:33:08;;;;;;;0.00;0.00;;;;;;;;;;4932044;29;20287;-64
2022/07/05 08:35:33;;;;;;;0.20;0.20;;;;;;;;;;4927480;29;20363;-63
2022/07/05 08:37:59;;;;;;;0.00;0.00;;;;;;;;;;4931311;29;20047;-62
2022/07/05 08:40:26;;;;;;;0.00;0.00;;;;;;;;;;4931361;29;20271;-62
2022/07/05 08:42:52;;;;;;;0.00;0.00;;;;;;;;;;4931331;29;20023;-63
2022/07/05 08:45:18;;;;;;;0.00;0.00;;;;;;;;;;4932053;29;20118;-63
2022/07/05 08:47:44;;;;;;;0.00;0.00;;;;;;;;;;4931482;29;20126;-62
2022/07/05 08:50:09;;;;;;;0.00;0.00;;;;;;;;;;4931836;29;20102;-62
2022/07/05 08:52:35;;;;;;;0.00;0.00;;;;;;;;;;4928176;29;20071;-62
2022/07/05 08:55:00;;;;;;;0.00;0.00;;;;;;;;;;4931567;29;20110;-64
2022/07/05 08:57:25;;;;;;;0.00;0.00;;;;;;;;;;4930492;29;20400;-63
2022/07/05 08:59:51;;;;;;;0.27;0.20;;;;;;;;;;4928626;29;20028;-63
2022/07/05 09:02:16;;;;;;;0.00;0.00;;;;;;;;;;4931674;29;20272;-62
2022/07/05 09:04:43;;;;;;;0.00;0.00;;;;;;;;;;4928949;29;20466;-63
2022/07/05 09:07:09;;;;;;;0.00;0.00;;;;;;;;;;4930348;29;20630;-63
2022/07/05 09:09:42;;;;;;;0.00;0.00;;;;;;;;;;4928367;29;20028;-63
2022/07/05 09:12:07;;;;;;;0.00;0.00;;;;;;;;;;4929552;29;20035;-63
2022/07/05 09:14:33;;;;;;;0.00;0.00;;;;;;;;;;4931314;29;20378;-64
2022/07/05 09:16:58;;;;;;;0.00;0.00;;;;;;;;;;4931504;29;20028;-68
2022/07/05 09:19:23;;;;;;;0.00;0.00;;;;;;;;;;4931613;29;20264;-64
2022/07/05 09:21:59;;;;;;;0.00;0.00;;;;;;;;;;4930788;29;20051;-65
2022/07/05 09:24:25;;;;;;;0.00;0.00;;;;;;;;;;4930888;29;20256;-64
2022/07/05 09:26:52;;;;;;;0.00;0.00;;;;;;;;;;4930849;29;20771;-65
2022/07/05 09:29:18;;;;;;;0.00;0.00;;;;;;;;;;4930179;29;20020;-64
2022/07/05 09:31:45;;;;;;;0.00;0.00;;;;;;;;;;4928205;29;20557;-63
2022/07/05 09:34:11;;;;;;;0.00;0.00;;;;;;;;;;4930704;29;20027;-63
2022/07/05 09:36:55;;;;;;;0.00;0.00;;;;;;;;;;4930279;29;20146;-63
2022/07/05 09:39:37;;;;;;;0.00;0.00;;;;;;;;;;4929733;29;20019;-64
2022/07/05 09:42:12;;;;;;;0.00;0.00;;;;;;;;;;4930691;29;20036;-63
2022/07/05 09:44:38;;;;;;;0.00;0.00;;;;;;;;;;4931098;29;20119;-64
2022/07/05 09:47:07;;;;;;;0.00;0.00;;;;;;;;;;4930703;29;20035;-63
2022/07/05 09:49:32;;;;;;;0.00;0.00;;;;;;;;;;4930040;29;20020;-64
2022/07/05 09:51:58;;;;;;;0.00;0.00;;;;;;;;;;4929151;29;20023;-64
2022/07/05 09:54:23;;;;;;;0.00;0.00;;;;;;;;;;4930865;29;20103;-64
2022/07/05 09:56:48;;;;;;;0.20;0.20;;;;;;;;;;4913645;29;20824;-64
2022/07/05 09:59:19;;;;;;;0.00;0.00;;;;;;;;;;4930732;29;20031;-64
2022/07/05 10:01:44;;;;;;;0.00;0.00;;;;;;;;;;4930574;29;20478;-65
2022/07/05 10:04:09;;;;;;;0.00;0.00;;;;;;;;;;4913751;29;20115;-64
2022/07/05 10:06:35;;;;;;;0.00;0.00;;;;;;;;;;4930908;29;20298;-64
2022/07/05 10:09:00;;;;;;;0.00;0.00;;;;;;;;;;4930460;29;20035;-64
2022/07/05 10:11:26;;;;;;;0.00;0.00;;;;;;;;;;4930673;29;20028;-65
2022/07/05 10:13:52;;;;;;;0.00;0.00;;;;;;;;;;4930689;29;20438;-64
2022/07/05 10:16:19;;;;;;;0.00;0.00;;;;;;;;;;4930850;29;20114;-64
2022/07/05 10:18:46;;;;;;;0.30;0.30;;;;;;;;;;4930442;29;20028;-64
2022/07/05 10:21:17;;;;;;;0.13;0.13;;;;;;;;;;4930894;29;20052;-64
2022/07/05 10:23:53;;;;;;;0.17;0.10;;;;;;;;;;4929758;29;20031;-64
2022/07/05 10:26:19;;;;;;;0.00;0.00;;;;;;;;;;4928276;29;20036;-64
2022/07/05 10:28:45;;;;;;;0.25;0.25;;;;;;;;;;4930255;29;20382;-63
2022/07/05 10:31:11;;;;;;;0.00;0.00;;;;;;;;;;4930857;29;20106;-64
2022/07/05 10:33:37;;;;;;;0.00;0.00;;;;;;;;;;4928895;29;20507;-64
2022/07/05 10:36:03;;;;;;;0.00;0.00;;;;;;;;;;4930124;29;20059;-64
2022/07/05 10:38:29;;;;;;;0.00;0.00;;;;;;;;;;4930685;29;20053;-63
2022/07/05 10:40:57;;;;;;;0.00;0.00;;;;;;;;;;4930137;29;20020;-64
2022/07/05 10:43:23;;;;;;;0.00;0.00;;;;;;;;;;4930870;29;20031;-64
2022/07/05 10:45:49;;;;;;;22.15;11.30;;;;;;;;;;4930019;29;20075;-64
2022/07/05 10:48:15;;;;;;;0.00;0.00;;;;;;;;;;4930900;29;20044;-64
2022/07/05 10:50:50;;;;;;;0.00;0.00;;;;;;;;;;4930859;29;20023;-64
2022/07/05 10:53:20;;;;;;;0.20;0.20;;;;;;;;;;4933831;29;20043;-64
2022/07/05 10:55:48;;;;;;;0.00;0.00;;;;;;;;;;4931381;29;20032;-65
2022/07/05 10:58:16;;;;;;;0.00;0.00;;;;;;;;;;4933888;29;20465;-64
2022/07/05 11:00:41;;;;;;;0.00;0.00;;;;;;;;;;4933882;29;20027;-64
2022/07/05 11:03:27;;;;;;;0.00;0.00;;;;;;;;;;4916508;29;20035;-64
2022/07/05 11:05:52;;;;;;;0.00;0.00;;;;;;;;;;4933203;29;20107;-65
2022/07/05 11:08:17;;;;;;;0.00;0.00;;;;;;;;;;4933771;29;20099;-64
2022/07/05 11:11:02;;;;;;;0.00;0.00;;;;;;;;;;4916167;29;20083;-64
2022/07/05 11:13:37;;;;;;;0.00;0.00;;;;;;;;;;4933315;29;20311;-64
2022/07/05 11:16:29;;;;;;;0.00;0.00;;;;;;;;;;4933307;29;20035;-64
2022/07/05 11:19:07;;;;;;;0.00;0.00;;;;;;;;;;4927622;29;20374;-64
2022/07/05 11:21:33;;;;;;;0.00;0.00;;;;;;;;;;4932534;29;20077;-64
2022/07/05 11:33:29;;;;;;;0.10;0.10;;;;;;;;;;4916931;29;20080;-63
2022/07/05 11:35:55;;;;;;;0.00;0.00;;;;;;;;;;4912485;29;20052;-63
2022/07/05 11:38:21;;;;;;;0.00;0.00;;;;;;;;;;4913932;29;20026;-63
2022/07/05 11:40:46;;;;;;;0.00;0.00;;;;;;;;;;4914232;29;20091;-60
2022/07/05 11:43:11;;;;;;;0.40;0.40;;;;;;;;;;4913663;29;20031;-62
2022/07/05 11:45:38;;;;;;;0.00;0.00;;;;;;;;;;4914231;29;20044;-62
2022/07/05 11:48:04;;;;;;;0.00;0.00;;;;;;;;;;4911665;29;20264;-62
2022/07/05 11:50:31;;;;;;;0.00;0.00;;;;;;;;;;4911962;29;20024;-62
2022/07/05 11:52:56;;;;;;;0.00;0.00;;;;;;;;;;4913785;29;20032;-61
2022/07/05 11:55:24;;;;;;;0.00;0.00;;;;;;;;;;4913553;29;20413;-62
2022/07/05 11:57:50;;;;;;;0.00;0.00;;;;;;;;;;4913986;29;20024;-62
2022/07/05 12:00:26;;;;;;;0.35;0.00;;;;;;;;;;4913384;29;20051;-63
2022/07/05 12:02:51;;;;;;;0.00;0.00;;;;;;;;;;4912310;29;20028;-63
2022/07/05 12:05:16;;;;;;;0.00;0.00;;;;;;;;;;4913490;29;20076;-62
2022/07/05 12:07:48;;;;;;;0.00;0.00;;;;;;;;;;4914181;29;20020;-61
2022/07/05 12:13:03;;;;;;;0.00;0.00;;;;;;;;;;4912734;29;20417;-62
2022/07/05 12:15:28;;;;;;;0.00;0.00;;;;;;;;;;4913302;29;20024;-61
2022/07/05 12:17:54;;;;;;;0.00;0.00;;;;;;;;;;4912800;29;20161;-61
2022/07/05 12:20:23;;;;;;;0.03;0.03;;;;;;;;;;4911361;29;20020;-62
2022/07/05 12:22:49;;;;;;;0.00;0.00;;;;;;;;;;4913070;29;20496;-62
2022/07/05 12:25:21;;;;;;;0.00;0.00;;;;;;;;;;4912601;29;20024;-62
2022/07/05 12:27:48;;;;;;;0.00;0.00;;;;;;;;;;4911671;29;20553;-61
2022/07/05 12:30:13;;;;;;;0.40;0.40;;;;;;;;;;4912070;29;20322;-62
2022/07/05 12:32:57;;;;;;;0.00;0.00;;;;;;;;;;4912521;29;20048;-62
2022/07/05 12:35:46;;;;;;;0.00;0.00;;;;;;;;;;4912814;29;20052;-62
2022/07/05 12:38:14;;;;;;;;;;;;;;;;;;4906633;29;20073;-62
2022/07/05 12:40:41;;;;;;;0.00;0.00;;;;;;;;;;4911665;29;20006;-62
2022/07/05 12:43:10;;;;;;;0.00;0.00;;;;;;;;;;4911409;29;20035;-62
2022/07/05 12:45:36;;;;;;;0.00;0.00;;;;;;;;;;4912845;29;20024;-61
2022/07/05 12:48:03;;;;;;;0.00;0.00;;;;;;;;;;4912093;29;20070;-62
2022/07/05 12:50:29;;;;;;;0.00;0.00;;;;;;;;;;4912529;29;20079;-61
2022/07/05 12:58:33;;;;;;;0.45;0.45;;;;;;;;;;4911734;29;20043;-62
2022/07/05 13:00:58;;;;;;;0.00;0.00;;;;;;;;;;4912344;29;20024;-62
2022/07/05 13:03:23;;;;;;;0.00;0.00;;;;;;;;;;4912479;29;20753;-61
2022/07/05 13:06:02;;;;;;;0.00;0.00;;;;;;;;;;4912557;29;20039;-61
2022/07/05 13:08:28;;;;;;;0.00;0.00;;;;;;;;;;4912677;29;20804;-62
2022/07/05 13:10:53;;;;;;;0.28;0.28;;;;;;;;;;4912875;29;20398;-62
2022/07/05 13:13:20;;;;;;;0.00;0.00;;;;;;;;;;4911517;29;20039;-61
2022/07/05 13:15:45;;;;;;;0.00;0.00;;;;;;;;;;4912376;29;20028;-63
2022/07/05 13:18:10;;;;;;;0.00;0.00;;;;;;;;;;4911292;29;20550;-62
2022/07/05 13:20:35;;;;;;;0.00;0.00;;;;;;;;;;4912160;29;20390;-62
2022/07/05 13:23:03;;;;;;;0.00;0.00;;;;;;;;;;4911415;29;20387;-63
2022/07/05 13:25:29;;;;;;;0.00;0.00;;;;;;;;;;4912209;29;20390;-63
2022/07/05 13:27:55;;;;;;;0.00;0.00;;;;;;;;;;4912226;29;20068;-63
2022/07/05 13:30:21;;;;;;;0.00;0.00;;;;;;;;;;4912845;29;20279;-63
2022/07/05 13:32:46;;;;;;;0.00;0.00;;;;;;;;;;4911411;29;20052;-62
2022/07/05 13:35:11;;;;;;;0.00;0.00;;;;;;;;;;4912297;29;20036;-62
2022/07/05 13:37:36;;;;;;;0.10;0.10;;;;;;;;;;4912828;29;20392;-62
2022/07/05 13:40:02;;;;;;;0.38;0.38;;;;;;;;;;4912404;29;20020;-63
2022/07/05 13:42:27;;;;;;;0.00;0.00;;;;;;;;;;4912991;29;20136;-62
2022/07/05 13:44:52;;;;;;;0.00;0.00;;;;;;;;;;4910756;29;21416;-64
2022/07/05 13:47:18;;;;;;;0.00;0.00;;;;;;;;;;4911733;29;20039;-62
2022/07/05 13:49:43;;;;;;;0.00;0.00;;;;;;;;;;4911285;29;20260;-63
2022/07/05 13:52:08;;;;;;;0.00;0.00;;;;;;;;;;4908029;29;20082;-63
2022/07/05 13:54:34;;;;;;;0.00;0.00;;;;;;;;;;4909767;29;20043;-62
2022/07/05 13:56:59;;;;;;;0.00;0.00;;;;;;;;;;4908910;29;20749;-63
2022/07/05 13:59:24;;;;;;;0.00;0.00;;;;;;;;;;4909159;29;20117;-63
2022/07/05 14:01:49;;;;;;;0.00;0.00;;;;;;;;;;4909217;29;20466;-63
2022/07/05 14:04:14;;;;;;;0.00;0.00;;;;;;;;;;4908773;29;20268;-63
2022/07/05 14:06:40;;;;;;;0.00;0.00;;;;;;;;;;4908511;29;20482;-63
2022/07/05 14:09:05;;;;;;;0.00;0.00;;;;;;;;;;4908211;29;20114;-63
2022/07/05 14:11:30;;;;;;;0.13;0.13;;;;;;;;;;4908906;29;20263;-63
2022/07/05 14:13:56;;;;;;;0.00;0.00;;;;;;;;;;4909354;29;20032;-63
2022/07/05 14:16:21;;;;;;;0.00;0.00;;;;;;;;;;4908443;29;20501;-63
2022/07/05 14:18:47;;;;;;;0.00;0.00;;;;;;;;;;4910222;29;20024;-63
2022/07/05 14:21:15;;;;;;;2.17;0.13;;;;;;;;;;4912205;29;20024;-63
2022/07/05 14:23:41;;;;;;;0.10;0.10;;;;;;;;;;4912114;29;20026;-64
2022/07/05 14:26:06;;;;;;;0.00;0.00;;;;;;;;;;4913332;29;20060;-64
2022/07/05 14:28:31;;;;;;;0.00;0.00;;;;;;;;;;4916261;29;20080;-63
2022/07/05 14:30:56;;;;;;;0.00;0.00;;;;;;;;;;4915768;29;20327;-63
2022/07/05 14:33:22;;;;;;;0.00;0.00;;;;;;;;;;4914878;29;20290;-64
2022/07/05 14:35:47;;;;;;;0.40;0.40;;;;;;;;;;4916148;29;20064;-63
2022/07/05 14:38:12;;;;;;;0.00;0.00;;;;;;;;;;4915547;29;20474;-63
2022/07/05 14:40:37;;;;;;;0.00;0.00;;;;;;;;;;4915894;29;20683;-63
2022/07/05 14:43:03;;;;;;;0.03;0.03;;;;;;;;;;4915588;29;20257;-63
2022/07/05 14:45:29;;;;;;;0.00;0.00;;;;;;;;;;4915546;29;20260;-63
2022/07/05 14:47:54;;;;;;;0.00;0.00;;;;;;;;;;4916070;29;20383;-63
2022/07/05 14:50:20;;;;;;;0.00;0.00;;;;;;;;;;4915798;29;20273;-62
2022/07/05 14:52:46;;;;;;;0.00;0.00;;;;;;;;;;4915671;29;20031;-62
2022/07/05 14:55:11;;;;;;;0.00;0.00;;;;;;;;;;4914137;29;20038;-62
2022/07/05 14:57:36;;;;;;;0.00;0.00;;;;;;;;;;4915470;29;20493;-63
2022/07/05 15:00:03;;;;;;;0.00;0.00;;;;;;;;;;4915116;29;20292;-63
2022/07/05 15:02:28;;;;;;;0.00;0.00;;;;;;;;;;4915570;29;20529;-63
2022/07/05 15:04:53;;;;;;;0.00;0.00;;;;;;;;;;4915649;29;20040;-63
2022/07/05 15:07:18;;;;;;;0.00;0.00;;;;;;;;;;4914863;29;20030;-63
2022/07/05 15:09:44;;;;;;;0.00;0.00;;;;;;;;;;4915238;29;20278;-63